createdAt,value
2017-02-26T00:00:06.302Z,1005.1
2017-02-26T00:01:06.284Z,1005.06
2017-02-26T00:02:06.265Z,1005.09
2017-02-26T00:03:06.249Z,1005.04
2017-02-26T00:04:06.231Z,1005.07
2017-02-26T00:05:06.215Z,1005.04
2017-02-26T00:06:06.199Z,1005.07
2017-02-26T00:07:06.178Z,1005.02
2017-02-26T00:08:06.163Z,1004.96
2017-02-26T00:09:06.144Z,1005.04
2017-02-26T00:10:06.126Z,1004.95
2017-02-26T00:11:06.108Z,1004.93
2017-02-26T00:12:06.089Z,1004.9
2017-02-26T00:13:06.074Z,1004.93
2017-02-26T00:14:06.058Z,1004.93
2017-02-26T00:15:06.037Z,1004.86
2017-02-26T00:16:06.023Z,1004.92
2017-02-26T00:17:06.003Z,1004.9
2017-02-26T00:18:05.985Z,1004.9
2017-02-26T00:19:05.968Z,1004.94
2017-02-26T00:20:05.950Z,1004.91
2017-02-26T00:21:05.937Z,1004.87
2017-02-26T00:22:05.916Z,1004.82
2017-02-26T00:23:05.898Z,1004.76
2017-02-26T00:24:05.879Z,1004.75
2017-02-26T00:25:05.863Z,1004.78
2017-02-26T00:26:05.844Z,1004.71
2017-02-26T00:27:05.826Z,1004.74
2017-02-26T00:28:05.808Z,1004.7
2017-02-26T00:29:05.792Z,1004.64
2017-02-26T00:30:05.774Z,1004.62
2017-02-26T00:31:05.765Z,1004.57
2017-02-26T00:32:05.743Z,1004.62
2017-02-26T00:33:05.723Z,1004.61
2017-02-26T00:34:05.704Z,1004.59
2017-02-26T00:35:05.687Z,1004.58
2017-02-26T00:36:05.668Z,1004.63
2017-02-26T00:37:05.653Z,1004.64
2017-02-26T00:38:05.635Z,1004.59
2017-02-26T00:39:05.616Z,1004.63
2017-02-26T00:40:05.597Z,1004.7
2017-02-26T00:41:05.585Z,1004.57
2017-02-26T00:42:05.563Z,1004.6
2017-02-26T00:43:05.547Z,1004.55
2017-02-26T00:44:05.529Z,1004.56
2017-02-26T00:45:05.715Z,1004.65
2017-02-26T00:46:05.494Z,1004.66
2017-02-26T00:47:05.476Z,1004.64
2017-02-26T00:48:05.458Z,1004.67
2017-02-26T00:49:05.442Z,1004.73
2017-02-26T00:50:05.425Z,1004.74
2017-02-26T00:51:05.407Z,1004.73
2017-02-26T00:52:05.388Z,1004.79
2017-02-26T00:53:05.371Z,1004.74
2017-02-26T00:54:05.352Z,1004.84
2017-02-26T00:55:05.338Z,1004.89
2017-02-26T00:56:05.320Z,1004.9
2017-02-26T00:57:05.301Z,1004.9
2017-02-26T00:58:05.282Z,1004.89
2017-02-26T00:59:05.268Z,1004.94
2017-02-26T01:00:05.249Z,1004.94
2017-02-26T01:01:05.233Z,1004.85
2017-02-26T01:02:05.213Z,1004.81
2017-02-26T01:03:05.200Z,1004.82
2017-02-26T01:04:05.178Z,1004.81
2017-02-26T01:05:05.160Z,1004.68
2017-02-26T01:06:05.145Z,1004.76
2017-02-26T01:07:05.126Z,1004.81
2017-02-26T01:08:05.109Z,1004.73
2017-02-26T01:09:05.094Z,1004.74
2017-02-26T01:10:05.072Z,1004.69
2017-02-26T01:11:05.055Z,1004.62
2017-02-26T01:12:05.038Z,1004.63
2017-02-26T01:13:05.019Z,1004.61
2017-02-26T01:14:05.005Z,1004.61
2017-02-26T01:15:04.985Z,1004.61
2017-02-26T01:16:04.967Z,1004.6
2017-02-26T01:17:04.951Z,1004.54
2017-02-26T01:18:04.933Z,1004.61
2017-02-26T01:19:04.915Z,1004.54
2017-02-26T01:20:04.897Z,1004.59
2017-02-26T01:21:04.883Z,1004.56
2017-02-26T01:22:04.862Z,1004.6
2017-02-26T01:23:04.845Z,1004.54
2017-02-26T01:24:04.828Z,1004.5
2017-02-26T01:25:04.810Z,1004.47
2017-02-26T01:26:04.793Z,1004.45
2017-02-26T01:27:04.774Z,1004.45
2017-02-26T01:28:04.758Z,1004.42
2017-02-26T01:29:04.740Z,1004.42
2017-02-26T01:30:04.723Z,1004.39
2017-02-26T01:31:04.704Z,1004.43
2017-02-26T01:32:04.687Z,1004.37
2017-02-26T01:33:04.672Z,1004.31
2017-02-26T01:34:04.654Z,1004.48
2017-02-26T01:35:04.634Z,1004.42
2017-02-26T01:36:04.617Z,1004.49
2017-02-26T01:37:04.602Z,1004.43
2017-02-26T01:38:04.582Z,1004.42
2017-02-26T01:39:04.565Z,1004.48
2017-02-26T01:40:04.549Z,1004.37
2017-02-26T01:41:04.531Z,1004.36
2017-02-26T01:42:04.512Z,1004.3
2017-02-26T01:43:04.496Z,1004.37
2017-02-26T01:44:04.480Z,1004.34
2017-02-26T01:45:04.462Z,1004.29
2017-02-26T01:46:04.443Z,1004.33
2017-02-26T01:47:04.425Z,1004.25
2017-02-26T01:48:04.410Z,1004.28
2017-02-26T01:49:04.390Z,1004.26
2017-02-26T01:50:04.373Z,1004.3
2017-02-26T01:51:04.356Z,1004.25
2017-02-26T01:52:04.340Z,1004.24
2017-02-26T01:53:04.320Z,1004.19
2017-02-26T01:54:04.303Z,1004.22
2017-02-26T01:55:04.287Z,1004.18
2017-02-26T01:56:04.272Z,1004.28
2017-02-26T01:57:04.251Z,1004.23
2017-02-26T01:58:04.235Z,1004.17
2017-02-26T01:59:04.217Z,1004.23
2017-02-26T02:00:04.202Z,1004.12
2017-02-26T02:01:04.181Z,1004.22
2017-02-26T02:02:04.163Z,1004.21
2017-02-26T02:03:04.147Z,1004.26
2017-02-26T02:04:04.132Z,1004.28
2017-02-26T02:05:04.111Z,1004.24
2017-02-26T02:06:04.094Z,1004.2
2017-02-26T02:07:04.079Z,1004.22
2017-02-26T02:08:04.061Z,1004.21
2017-02-26T02:09:04.042Z,1004.13
2017-02-26T02:10:04.026Z,1004.13
2017-02-26T02:11:04.008Z,1004.09
2017-02-26T02:12:03.989Z,1004.1
2017-02-26T02:13:04.009Z,1004.09
2017-02-26T02:14:03.956Z,1004.08
2017-02-26T02:15:03.936Z,1004.05
2017-02-26T02:16:03.920Z,1004.05
2017-02-26T02:17:03.903Z,1004.03
2017-02-26T02:18:03.885Z,1004.02
2017-02-26T02:19:03.867Z,1004.03
2017-02-26T02:20:03.849Z,1004.05
2017-02-26T02:21:03.833Z,1004
2017-02-26T02:22:03.816Z,1003.96
2017-02-26T02:23:03.815Z,1003.94
2017-02-26T02:24:03.787Z,1003.92
2017-02-26T02:25:03.764Z,1003.94
2017-02-26T02:26:03.746Z,1003.92
2017-02-26T02:27:03.731Z,1003.92
2017-02-26T02:28:03.717Z,1003.94
2017-02-26T02:29:03.694Z,1003.91
2017-02-26T02:30:03.676Z,1003.99
2017-02-26T02:31:03.660Z,1003.98
2017-02-26T02:32:03.642Z,1003.9
2017-02-26T02:33:03.624Z,1003.9
2017-02-26T02:34:03.607Z,1003.94
2017-02-26T02:35:03.589Z,1003.94
2017-02-26T02:36:03.572Z,1003.91
2017-02-26T02:37:03.555Z,1003.87
2017-02-26T02:38:03.537Z,1003.92
2017-02-26T02:39:03.520Z,1003.89
2017-02-26T02:40:03.501Z,1003.92
2017-02-26T02:41:03.484Z,1003.87
2017-02-26T02:42:03.468Z,1003.82
2017-02-26T02:43:03.499Z,1003.8
2017-02-26T02:44:03.433Z,1003.81
2017-02-26T02:45:03.618Z,1003.83
2017-02-26T02:46:03.396Z,1003.77
2017-02-26T02:47:03.378Z,1003.81
2017-02-26T02:48:03.364Z,1003.76
2017-02-26T02:49:03.346Z,1003.67
2017-02-26T02:50:03.326Z,1003.71
2017-02-26T02:51:03.307Z,1003.64
2017-02-26T02:52:03.290Z,1003.63
2017-02-26T02:53:03.273Z,1003.59
2017-02-26T02:54:03.257Z,1003.57
2017-02-26T02:55:03.240Z,1003.55
2017-02-26T02:56:03.223Z,1003.5
2017-02-26T02:57:03.204Z,1003.47
2017-02-26T02:58:03.186Z,1003.43
2017-02-26T02:59:03.169Z,1003.43
2017-02-26T03:00:03.150Z,1003.46
2017-02-26T03:01:03.134Z,1003.4
2017-02-26T03:02:03.115Z,1003.42
2017-02-26T03:03:03.098Z,1003.38
2017-02-26T03:04:03.082Z,1003.43
2017-02-26T03:05:03.064Z,1003.39
2017-02-26T03:06:03.047Z,1003.38
2017-02-26T03:07:03.029Z,1003.38
2017-02-26T03:08:03.012Z,1003.4
2017-02-26T03:09:02.995Z,1003.4
2017-02-26T03:10:02.976Z,1003.36
2017-02-26T03:11:02.961Z,1003.32
2017-02-26T03:12:02.942Z,1003.31
2017-02-26T03:13:02.924Z,1003.29
2017-02-26T03:14:02.909Z,1003.3
2017-02-26T03:15:02.903Z,1003.21
2017-02-26T03:16:02.872Z,1003.29
2017-02-26T03:17:02.854Z,1003.21
2017-02-26T03:18:02.837Z,1003.19
2017-02-26T03:19:02.820Z,1003.16
2017-02-26T03:20:02.802Z,1003.15
2017-02-26T03:21:02.785Z,1003.09
2017-02-26T03:22:02.768Z,1003.09
2017-02-26T03:23:02.752Z,1003.05
2017-02-26T03:24:02.740Z,1003.06
2017-02-26T03:25:02.714Z,1003
2017-02-26T03:26:02.697Z,1003.09
2017-02-26T03:27:02.679Z,1003.06
2017-02-26T03:28:02.663Z,1003
2017-02-26T03:29:02.644Z,1002.92
2017-02-26T03:30:02.631Z,1002.92
2017-02-26T03:31:02.612Z,1002.99
2017-02-26T03:32:02.593Z,1002.96
2017-02-26T03:33:02.574Z,1002.97
2017-02-26T03:34:02.557Z,1002.97
2017-02-26T03:35:02.544Z,1002.94
2017-02-26T03:36:02.552Z,1002.99
2017-02-26T03:37:02.504Z,1002.97
2017-02-26T03:38:02.489Z,1002.99
2017-02-26T03:39:02.467Z,1002.96
2017-02-26T03:40:02.452Z,1002.93
2017-02-26T03:41:02.433Z,1002.88
2017-02-26T03:42:02.420Z,1002.93
2017-02-26T03:43:02.399Z,1002.88
2017-02-26T03:44:02.381Z,1002.91
2017-02-26T03:45:02.363Z,1002.82
2017-02-26T03:46:02.346Z,1002.84
2017-02-26T03:47:02.327Z,1002.85
2017-02-26T03:48:02.315Z,1002.82
2017-02-26T03:49:02.294Z,1002.81
2017-02-26T03:50:02.275Z,1002.8
2017-02-26T03:51:02.257Z,1002.84
2017-02-26T03:52:02.241Z,1002.86
2017-02-26T03:53:02.222Z,1002.83
2017-02-26T03:54:02.205Z,1002.82
2017-02-26T03:55:02.191Z,1002.83
2017-02-26T03:56:02.170Z,1002.84
2017-02-26T03:57:02.153Z,1002.78
2017-02-26T03:58:02.136Z,1002.77
2017-02-26T03:59:02.118Z,1002.73
2017-02-26T04:00:02.102Z,1002.72
2017-02-26T04:01:02.082Z,1002.75
2017-02-26T04:02:02.065Z,1002.67
2017-02-26T04:03:02.048Z,1002.69
2017-02-26T04:04:02.029Z,1002.76
2017-02-26T04:05:02.014Z,1002.81
2017-02-26T04:06:01.994Z,1002.74
2017-02-26T04:07:01.977Z,1002.75
2017-02-26T04:08:01.967Z,1002.72
2017-02-26T04:09:01.944Z,1002.67
2017-02-26T04:10:01.929Z,1002.71
2017-02-26T04:11:01.906Z,1002.69
2017-02-26T04:12:01.888Z,1002.75
2017-02-26T04:13:01.871Z,1002.71
2017-02-26T04:14:01.852Z,1002.79
2017-02-26T04:15:01.836Z,1002.71
2017-02-26T04:16:01.821Z,1002.74
2017-02-26T04:17:01.799Z,1002.74
2017-02-26T04:18:01.782Z,1002.8
2017-02-26T04:19:01.764Z,1002.83
2017-02-26T04:20:01.756Z,1002.81
2017-02-26T04:21:01.730Z,1002.76
2017-02-26T04:22:01.711Z,1002.83
2017-02-26T04:23:01.696Z,1002.81
2017-02-26T04:24:01.675Z,1002.82
2017-02-26T04:25:01.659Z,1002.86
2017-02-26T04:26:01.642Z,1002.88
2017-02-26T04:27:01.623Z,1002.92
2017-02-26T04:28:01.608Z,1002.87
2017-02-26T04:29:01.593Z,1002.92
2017-02-26T04:30:01.573Z,1002.87
2017-02-26T04:31:01.555Z,1002.86
2017-02-26T04:32:01.537Z,1002.88
2017-02-26T04:33:01.519Z,1002.89
2017-02-26T04:34:01.500Z,1002.87
2017-02-26T04:35:01.484Z,1002.88
2017-02-26T04:36:01.467Z,1002.89
2017-02-26T04:37:01.449Z,1002.87
2017-02-26T04:38:01.432Z,1002.89
2017-02-26T04:39:01.414Z,1002.89
2017-02-26T04:40:01.397Z,1002.86
2017-02-26T04:41:01.378Z,1002.87
2017-02-26T04:42:01.360Z,1002.88
2017-02-26T04:43:01.345Z,1002.88
2017-02-26T04:44:01.326Z,1002.8
2017-02-26T04:45:01.308Z,1002.73
2017-02-26T04:46:01.292Z,1002.75
2017-02-26T04:47:01.279Z,1002.73
2017-02-26T04:48:01.256Z,1002.78
2017-02-26T04:49:01.240Z,1002.7
2017-02-26T04:50:01.223Z,1002.67
2017-02-26T04:51:01.205Z,1002.7
2017-02-26T04:52:01.187Z,1002.68
2017-02-26T04:53:01.170Z,1002.68
2017-02-26T04:54:01.152Z,1002.74
2017-02-26T04:55:01.138Z,1002.67
2017-02-26T04:56:01.117Z,1002.72
2017-02-26T04:57:01.098Z,1002.71
2017-02-26T04:58:01.084Z,1002.72
2017-02-26T04:59:01.067Z,1002.79
2017-02-26T05:00:01.049Z,1002.7
2017-02-26T05:01:01.029Z,1002.73
2017-02-26T05:02:01.012Z,1002.73
2017-02-26T05:03:00.996Z,1002.7
2017-02-26T05:04:00.977Z,1002.74
2017-02-26T05:05:00.960Z,1002.69
2017-02-26T05:06:00.942Z,1002.65
2017-02-26T05:07:00.924Z,1002.71
2017-02-26T05:08:00.907Z,1002.75
2017-02-26T05:09:00.890Z,1002.74
2017-02-26T05:10:00.872Z,1002.64
2017-02-26T05:11:00.855Z,1002.67
2017-02-26T05:12:00.838Z,1002.64
2017-02-26T05:13:00.822Z,1002.6
2017-02-26T05:14:00.804Z,1002.66
2017-02-26T05:15:00.787Z,1002.58
2017-02-26T05:16:00.768Z,1002.56
2017-02-26T05:17:00.751Z,1002.5
2017-02-26T05:18:00.735Z,1002.45
2017-02-26T05:19:00.716Z,1002.48
2017-02-26T05:20:00.699Z,1002.49
2017-02-26T05:21:00.708Z,1002.46
2017-02-26T05:22:00.663Z,1002.61
2017-02-26T05:23:00.648Z,1002.51
2017-02-26T05:24:00.629Z,1002.51
2017-02-26T05:25:00.612Z,1002.48
2017-02-26T05:26:00.594Z,1002.47
2017-02-26T05:27:00.578Z,1002.49
2017-02-26T05:28:00.563Z,1002.38
2017-02-26T05:29:00.545Z,1002.35
2017-02-26T05:30:00.524Z,1002.36
2017-02-26T05:31:00.509Z,1002.33
2017-02-26T05:32:00.489Z,1002.32
2017-02-26T05:33:00.475Z,1002.31
2017-02-26T05:34:00.456Z,1002.38
2017-02-26T05:35:00.438Z,1002.26
2017-02-26T05:36:00.421Z,1002.29
2017-02-26T05:37:00.403Z,1002.33
2017-02-26T05:38:00.385Z,1002.28
2017-02-26T05:39:00.367Z,1002.26
2017-02-26T05:40:00.350Z,1002.19
2017-02-26T05:41:00.333Z,1002.24
2017-02-26T05:42:00.317Z,1002.13
2017-02-26T05:43:00.297Z,1002.22
2017-02-26T05:44:00.280Z,1002.18
2017-02-26T05:45:00.262Z,1002.26
2017-02-26T05:46:00.249Z,1002.2
2017-02-26T05:47:00.232Z,1002.33
2017-02-26T05:48:00.211Z,1002.32
2017-02-26T05:49:00.196Z,1002.31
2017-02-26T05:50:00.175Z,1002.3
2017-02-26T05:51:00.157Z,1002.25
2017-02-26T05:52:00.141Z,1002.27
2017-02-26T05:53:00.122Z,1002.2
2017-02-26T05:54:00.106Z,1002.27
2017-02-26T05:55:00.090Z,1002.29
2017-02-26T05:56:00.070Z,1002.35
2017-02-26T05:57:00.064Z,1002.29
2017-02-26T05:58:00.050Z,1002.28
2017-02-26T05:59:00.019Z,1002.24
2017-02-26T06:00:00.004Z,1002.22
2017-02-26T06:00:59.985Z,1002.21
2017-02-26T06:01:59.969Z,1002.15
2017-02-26T06:02:59.953Z,1002.24
2017-02-26T06:03:59.931Z,1002.21
2017-02-26T06:04:59.915Z,1002.19
2017-02-26T06:05:59.896Z,1002.11
2017-02-26T06:06:59.878Z,1002.24
2017-02-26T06:07:59.861Z,1002.21
2017-02-26T06:08:59.846Z,1002.17
2017-02-26T06:09:59.826Z,1002.24
2017-02-26T06:10:59.811Z,1002.23
2017-02-26T06:11:59.791Z,1002.23
2017-02-26T06:12:59.775Z,1002.23
2017-02-26T06:13:59.759Z,1002.16
2017-02-26T06:14:59.739Z,1002.16
2017-02-26T06:15:59.722Z,1002.19
2017-02-26T06:16:59.703Z,1002.21
2017-02-26T06:17:59.688Z,1002.16
2017-02-26T06:18:59.671Z,1002.24
2017-02-26T06:19:59.652Z,1002.16
2017-02-26T06:20:59.637Z,1002.14
2017-02-26T06:21:59.668Z,1002.16
2017-02-26T06:22:59.599Z,1002.22
2017-02-26T06:23:59.581Z,1002.16
2017-02-26T06:24:59.565Z,1002.15
2017-02-26T06:25:59.546Z,1002.17
2017-02-26T06:26:59.528Z,1002.15
2017-02-26T06:27:59.511Z,1002.24
2017-02-26T06:28:59.496Z,1002.22
2017-02-26T06:29:59.477Z,1002.19
2017-02-26T06:30:59.459Z,1002.16
2017-02-26T06:31:59.441Z,1002.14
2017-02-26T06:32:59.424Z,1002.18
2017-02-26T06:33:59.408Z,1002.25
2017-02-26T06:34:59.395Z,1002.15
2017-02-26T06:35:59.371Z,1002.21
2017-02-26T06:36:59.356Z,1002.24
2017-02-26T06:37:59.338Z,1002.18
2017-02-26T06:38:59.318Z,1002.2
2017-02-26T06:39:59.302Z,1002.22
2017-02-26T06:40:59.283Z,1002.18
2017-02-26T06:41:59.266Z,1002.18
2017-02-26T06:42:59.249Z,1002.14
2017-02-26T06:43:59.230Z,1002.2
2017-02-26T06:44:59.215Z,1002.17
2017-02-26T06:45:59.399Z,1002.19
2017-02-26T06:46:59.178Z,1002.18
2017-02-26T06:47:59.161Z,1002.22
2017-02-26T06:48:59.142Z,1002.19
2017-02-26T06:49:59.127Z,1002.19
2017-02-26T06:50:59.108Z,1002.14
2017-02-26T06:51:59.090Z,1002.19
2017-02-26T06:52:59.070Z,1002.21
2017-02-26T06:53:59.054Z,1002.29
2017-02-26T06:54:59.037Z,1002.31
2017-02-26T06:55:59.019Z,1002.32
2017-02-26T06:56:59.002Z,1002.28
2017-02-26T06:57:58.985Z,1002.35
2017-02-26T06:58:58.967Z,1002.36
2017-02-26T06:59:58.949Z,1002.43
2017-02-26T07:00:58.933Z,1002.42
2017-02-26T07:01:58.915Z,1002.45
2017-02-26T07:02:58.897Z,1002.46
2017-02-26T07:03:58.880Z,1002.45
2017-02-26T07:04:58.862Z,1002.59
2017-02-26T07:05:58.845Z,1002.55
2017-02-26T07:06:58.827Z,1002.45
2017-02-26T07:07:58.810Z,1002.54
2017-02-26T07:08:58.794Z,1002.53
2017-02-26T07:09:58.777Z,1002.55
2017-02-26T07:10:58.756Z,1002.56
2017-02-26T07:11:58.941Z,1002.63
2017-02-26T07:12:58.725Z,1002.6
2017-02-26T07:13:58.704Z,1002.61
2017-02-26T07:14:58.685Z,1002.56
2017-02-26T07:15:58.670Z,1002.58
2017-02-26T07:16:58.651Z,1002.6
2017-02-26T07:17:58.634Z,1002.59
2017-02-26T07:18:58.618Z,1002.63
2017-02-26T07:19:58.599Z,1002.68
2017-02-26T07:20:58.583Z,1002.71
2017-02-26T07:21:58.564Z,1002.76
2017-02-26T07:22:58.550Z,1002.78
2017-02-26T07:23:58.532Z,1002.77
2017-02-26T07:24:58.515Z,1002.82
2017-02-26T07:25:58.497Z,1002.82
2017-02-26T07:26:58.487Z,1002.78
2017-02-26T07:27:58.464Z,1002.78
2017-02-26T07:28:58.447Z,1002.86
2017-02-26T07:29:58.432Z,1002.86
2017-02-26T07:30:58.413Z,1002.91
2017-02-26T07:31:58.399Z,1002.9
2017-02-26T07:32:58.384Z,1002.97
2017-02-26T07:33:58.364Z,1002.84
2017-02-26T07:34:58.348Z,1002.91
2017-02-26T07:35:58.330Z,1002.88
2017-02-26T07:36:58.367Z,1002.9
2017-02-26T07:37:58.294Z,1002.91
2017-02-26T07:38:58.279Z,1002.92
2017-02-26T07:39:58.260Z,1002.91
2017-02-26T07:40:58.246Z,1002.94
2017-02-26T07:41:58.228Z,1002.92
2017-02-26T07:42:58.219Z,1002.96
2017-02-26T07:43:58.193Z,1002.92
2017-02-26T07:44:58.177Z,1002.85
2017-02-26T07:45:58.179Z,1002.92
2017-02-26T07:46:58.143Z,1002.95
2017-02-26T07:47:58.130Z,1002.96
2017-02-26T07:48:58.116Z,1002.93
2017-02-26T07:49:58.100Z,1002.96
2017-02-26T07:50:58.079Z,1002.85
2017-02-26T07:51:58.071Z,1002.92
2017-02-26T07:52:58.049Z,1002.84
2017-02-26T07:53:58.024Z,1002.87
2017-02-26T07:54:58.007Z,1002.88
2017-02-26T07:55:57.991Z,1002.9
2017-02-26T07:56:57.973Z,1002.96
2017-02-26T07:57:58.005Z,1002.95
2017-02-26T07:58:57.942Z,1002.94
2017-02-26T07:59:57.925Z,1002.96
2017-02-26T08:00:57.907Z,1002.94
2017-02-26T08:01:57.889Z,1002.97
2017-02-26T08:02:57.871Z,1002.91
2017-02-26T08:03:57.855Z,1002.92
2017-02-26T08:04:57.838Z,1002.87
2017-02-26T08:05:57.821Z,1002.78
2017-02-26T08:06:57.808Z,1002.98
2017-02-26T08:07:57.790Z,1002.91
2017-02-26T08:08:57.770Z,1002.92
2017-02-26T08:09:57.753Z,1002.88
2017-02-26T08:10:57.738Z,1002.98
2017-02-26T08:11:57.723Z,1003.04
2017-02-26T08:12:57.703Z,1003.04
2017-02-26T08:13:57.691Z,1002.9
2017-02-26T08:14:57.672Z,1003.02
2017-02-26T08:15:57.655Z,1003.03
2017-02-26T08:16:57.641Z,1002.98
2017-02-26T08:17:57.622Z,1002.94
2017-02-26T08:18:57.606Z,1003.14
2017-02-26T08:19:57.590Z,1003.22
2017-02-26T08:20:57.572Z,1003.16
2017-02-26T08:21:57.556Z,1003.12
2017-02-26T08:22:57.542Z,1003.09
2017-02-26T08:23:57.523Z,1003.09
2017-02-26T08:24:57.506Z,1003.19
2017-02-26T08:25:57.491Z,1003.22
2017-02-26T08:26:57.474Z,1003.15
2017-02-26T08:27:57.458Z,1003.03
2017-02-26T08:28:57.440Z,1003.09
2017-02-26T08:29:57.431Z,1003.02
2017-02-26T08:30:57.406Z,1003.11
2017-02-26T08:31:57.390Z,1003.06
2017-02-26T08:32:57.375Z,1003.04
2017-02-26T08:33:57.358Z,1003.04
2017-02-26T08:34:57.339Z,1003.09
2017-02-26T08:35:57.324Z,1003.12
2017-02-26T08:36:57.307Z,1003.06
2017-02-26T08:37:57.290Z,1003.12
2017-02-26T08:38:57.275Z,1003.02
2017-02-26T08:39:57.262Z,1003.06
2017-02-26T08:40:57.248Z,1003.01
2017-02-26T08:41:57.225Z,1003.02
2017-02-26T08:42:57.207Z,1003.08
2017-02-26T08:43:57.195Z,1003.09
2017-02-26T08:44:57.177Z,1003.06
2017-02-26T08:45:57.359Z,1003.08
2017-02-26T08:46:57.146Z,1003.06
2017-02-26T08:47:57.125Z,1003.03
2017-02-26T08:48:57.111Z,1003.01
2017-02-26T08:49:57.093Z,1003.02
2017-02-26T08:50:57.077Z,1002.95
2017-02-26T08:51:57.061Z,1002.87
2017-02-26T08:52:57.042Z,1002.95
2017-02-26T08:53:57.027Z,1003.01
2017-02-26T08:54:57.011Z,1002.85
2017-02-26T08:55:56.996Z,1002.74
2017-02-26T08:56:56.980Z,1002.71
2017-02-26T08:57:56.964Z,1002.67
2017-02-26T08:58:56.950Z,1002.72
2017-02-26T08:59:56.933Z,1002.74
2017-02-26T09:00:56.919Z,1002.74
2017-02-26T09:01:56.902Z,1002.82
2017-02-26T09:02:56.887Z,1003.01
2017-02-26T09:03:56.868Z,1002.94
2017-02-26T09:04:56.855Z,1003.22
2017-02-26T09:05:56.843Z,1002.88
2017-02-26T09:06:56.825Z,1002.83
2017-02-26T09:07:56.811Z,1002.82
2017-02-26T09:08:56.797Z,1002.83
2017-02-26T09:09:56.796Z,1002.78
2017-02-26T09:10:56.771Z,1002.94
2017-02-26T09:11:56.759Z,1002.99
2017-02-26T09:12:56.741Z,1002.91
2017-02-26T09:13:56.728Z,1002.92
2017-02-26T09:14:56.722Z,1002.98
2017-02-26T09:15:56.703Z,1002.97
2017-02-26T09:16:56.694Z,1002.94
2017-02-26T09:17:56.676Z,1002.9
2017-02-26T09:18:56.660Z,1002.76
2017-02-26T09:19:56.650Z,1002.84
2017-02-26T09:20:56.637Z,1002.8
2017-02-26T09:21:56.621Z,1002.78
2017-02-26T09:22:56.610Z,1002.78
2017-02-26T09:23:56.596Z,1002.85
2017-02-26T09:24:56.587Z,1002.83
2017-02-26T09:25:56.571Z,1003.01
2017-02-26T09:26:56.610Z,1002.93
2017-02-26T09:27:56.544Z,1003
2017-02-26T09:28:56.532Z,1003.05
2017-02-26T09:29:56.525Z,1003.11
2017-02-26T09:30:56.513Z,1003.06
2017-02-26T09:31:56.493Z,1003.05
2017-02-26T09:32:56.480Z,1003.05
2017-02-26T09:33:56.467Z,1003.02
2017-02-26T09:34:56.455Z,1003.09
2017-02-26T09:35:56.443Z,1003.02
2017-02-26T09:36:56.428Z,1003.06
2017-02-26T09:37:56.414Z,1003.13
2017-02-26T09:38:56.401Z,1003.13
2017-02-26T09:39:56.389Z,1003.13
2017-02-26T09:40:56.375Z,1003.06
2017-02-26T09:41:56.361Z,1003.15
2017-02-26T09:42:56.351Z,1003.12
2017-02-26T09:43:56.334Z,1003.16
2017-02-26T09:44:56.322Z,1003.16
2017-02-26T09:45:56.307Z,1003.16
2017-02-26T09:46:56.295Z,1003.15
2017-02-26T09:47:56.280Z,1003.21
2017-02-26T09:48:56.268Z,1003.17
2017-02-26T09:49:56.254Z,1003.2
2017-02-26T09:50:56.240Z,1003.21
2017-02-26T09:51:56.224Z,1003.3
2017-02-26T09:52:56.213Z,1003.3
2017-02-26T09:53:56.203Z,1003.27
2017-02-26T09:54:56.182Z,1003.31
2017-02-26T09:55:56.174Z,1003.26
2017-02-26T09:56:56.154Z,1003.14
2017-02-26T09:57:56.141Z,1003.18
2017-02-26T09:58:56.124Z,1003.2
2017-02-26T09:59:56.110Z,1003.16
2017-02-26T10:00:56.097Z,1003.14
2017-02-26T10:01:56.080Z,1003.3
2017-02-26T10:02:56.065Z,1003.23
2017-02-26T10:03:56.051Z,1003.2
2017-02-26T10:04:56.035Z,1003.26
2017-02-26T10:05:56.022Z,1003.15
2017-02-26T10:06:56.007Z,1003.07
2017-02-26T10:07:55.993Z,1003.18
2017-02-26T10:08:55.977Z,1003.1
2017-02-26T10:09:55.961Z,1003.15
2017-02-26T10:10:55.947Z,1003.14
2017-02-26T10:11:55.933Z,1003.09
2017-02-26T10:12:55.917Z,1003.06
2017-02-26T10:13:55.905Z,1003.11
2017-02-26T10:14:55.890Z,1003.1
2017-02-26T10:15:55.874Z,1003.15
2017-02-26T10:16:55.860Z,1003.1
2017-02-26T10:17:55.845Z,1003.15
2017-02-26T10:18:55.833Z,1003.13
2017-02-26T10:19:55.816Z,1003.17
2017-02-26T10:20:55.802Z,1003.18
2017-02-26T10:21:55.789Z,1003.22
2017-02-26T10:22:55.773Z,1003.15
2017-02-26T10:23:55.762Z,1003.26
2017-02-26T10:24:55.745Z,1003.27
2017-02-26T10:25:55.733Z,1003.23
2017-02-26T10:26:55.721Z,1003.27
2017-02-26T10:27:55.704Z,1003.21
2017-02-26T10:28:55.692Z,1003.24
2017-02-26T10:29:55.678Z,1003.26
2017-02-26T10:30:55.665Z,1003.32
2017-02-26T10:31:55.651Z,1003.25
2017-02-26T10:32:55.640Z,1003.31
2017-02-26T10:33:55.625Z,1003.24
2017-02-26T10:34:55.612Z,1003.24
2017-02-26T10:35:55.621Z,1003.29
2017-02-26T10:36:55.586Z,1003.21
2017-02-26T10:37:55.571Z,1003.25
2017-02-26T10:38:55.560Z,1003.26
2017-02-26T10:39:55.546Z,1003.2
2017-02-26T10:40:55.531Z,1003.25
2017-02-26T10:41:55.519Z,1003.23
2017-02-26T10:42:55.510Z,1003.25
2017-02-26T10:43:55.489Z,1003.2
2017-02-26T10:44:55.487Z,1003.28
2017-02-26T10:45:55.667Z,1003.25
2017-02-26T10:46:55.650Z,1003.28
2017-02-26T10:47:55.473Z,1003.27
2017-02-26T10:48:55.426Z,1003.24
2017-02-26T10:49:55.404Z,1003.3
2017-02-26T10:50:55.391Z,1003.3
2017-02-26T10:51:55.377Z,1003.39
2017-02-26T10:52:55.365Z,1003.44
2017-02-26T10:53:55.349Z,1003.38
2017-02-26T10:54:55.335Z,1003.33
2017-02-26T10:55:55.319Z,1003.36
2017-02-26T10:56:55.309Z,1003.36
2017-02-26T10:57:55.291Z,1003.35
2017-02-26T10:58:55.281Z,1003.35
2017-02-26T10:59:55.268Z,1003.44
2017-02-26T11:00:55.251Z,1003.44
2017-02-26T11:01:55.237Z,1003.47
2017-02-26T11:02:55.219Z,1003.39
2017-02-26T11:03:55.205Z,1003.36
2017-02-26T11:04:55.195Z,1003.34
2017-02-26T11:05:55.175Z,1003.49
2017-02-26T11:06:55.161Z,1003.36
2017-02-26T11:07:55.143Z,1003.42
2017-02-26T11:08:55.130Z,1003.43
2017-02-26T11:09:55.130Z,1003.46
2017-02-26T11:10:55.122Z,1003.45
2017-02-26T11:11:55.094Z,1003.45
2017-02-26T11:12:55.069Z,1003.47
2017-02-26T11:13:55.056Z,1003.44
2017-02-26T11:14:55.038Z,1003.43
2017-02-26T11:15:55.047Z,1003.45
2017-02-26T11:16:55.008Z,1003.45
2017-02-26T11:17:54.993Z,1003.44
2017-02-26T11:18:54.977Z,1003.45
2017-02-26T11:19:54.960Z,1003.45
2017-02-26T11:20:54.948Z,1003.38
2017-02-26T11:21:54.929Z,1003.38
2017-02-26T11:22:54.914Z,1003.34
2017-02-26T11:23:54.898Z,1003.34
2017-02-26T11:24:54.884Z,1003.35
2017-02-26T11:25:54.869Z,1003.4
2017-02-26T11:26:54.851Z,1003.3
2017-02-26T11:27:54.846Z,1003.39
2017-02-26T11:28:54.823Z,1003.22
2017-02-26T11:29:54.805Z,1003.3
2017-02-26T11:30:54.791Z,1003.38
2017-02-26T11:31:54.776Z,1003.24
2017-02-26T11:32:54.760Z,1003.24
2017-02-26T11:33:54.744Z,1003.22
2017-02-26T11:34:54.729Z,1003.25
2017-02-26T11:35:54.714Z,1003.26
2017-02-26T11:36:54.697Z,1003.21
2017-02-26T11:37:54.685Z,1003.18
2017-02-26T11:38:54.668Z,1003.14
2017-02-26T11:39:54.658Z,1003.13
2017-02-26T11:40:54.634Z,1003.09
2017-02-26T11:41:54.621Z,1003.14
2017-02-26T11:42:54.605Z,1003.09
2017-02-26T11:43:54.588Z,1003.06
2017-02-26T11:44:54.572Z,1003.03
2017-02-26T11:45:54.556Z,1003.04
2017-02-26T11:46:54.544Z,1003.03
2017-02-26T11:47:54.531Z,1002.98
2017-02-26T11:48:54.512Z,1003.05
2017-02-26T11:49:54.496Z,1002.97
2017-02-26T11:50:54.482Z,1002.99
2017-02-26T11:51:54.466Z,1002.98
2017-02-26T11:52:54.454Z,1002.98
2017-02-26T11:53:54.435Z,1002.95
2017-02-26T11:54:54.421Z,1002.9
2017-02-26T11:55:54.405Z,1002.9
2017-02-26T11:56:54.390Z,1002.93
2017-02-26T11:57:54.374Z,1002.85
2017-02-26T11:58:54.359Z,1002.88
2017-02-26T11:59:54.357Z,1002.91
2017-02-26T12:00:54.330Z,1002.86
2017-02-26T12:01:54.316Z,1002.87
2017-02-26T12:02:54.299Z,1002.91
2017-02-26T12:03:54.285Z,1002.86
2017-02-26T12:04:54.269Z,1002.94
2017-02-26T12:05:54.254Z,1002.88
2017-02-26T12:06:54.243Z,1002.89
2017-02-26T12:07:54.227Z,1002.88